sensor_id;sensor_type;location;lat;lon;timestamp;P1;durP1;ratioP1;P2;durP2;ratioP2
75620;SDS011;64574;48.506;-2.750;2022-12-10T00:00:18;16.05;;;9.23;;
75620;SDS011;64574;48.506;-2.750;2022-12-10T00:02:44;15.50;;;8.60;;
75620;SDS011;64574;48.506;-2.750;2022-12-10T00:05:10;17.00;;;7.95;;
75620;SDS011;64574;48.506;-2.750;2022-12-10T00:07:35;13.93;;;7.70;;
75620;SDS011;64574;48.506;-2.750;2022-12-10T00:10:01;16.33;;;8.13;;
75620;SDS011;64574;48.506;-2.750;2022-12-10T00:12:27;15.27;;;8.15;;
75620;SDS011;64574;48.506;-2.750;2022-12-10T00:14:52;15.02;;;7.95;;
75620;SDS011;64574;48.506;-2.750;2022-12-10T00:17:18;13.32;;;7.20;;
75620;SDS011;64574;48.506;-2.750;2022-12-10T00:19:43;14.82;;;7.82;;
75620;SDS011;64574;48.506;-2.750;2022-12-10T00:22:09;15.38;;;7.88;;
75620;SDS011;64574;48.506;-2.750;2022-12-10T00:24:35;14.02;;;7.85;;
75620;SDS011;64574;48.506;-2.750;2022-12-10T00:27:00;14.00;;;7.63;;
75620;SDS011;64574;48.506;-2.750;2022-12-10T00:29:26;14.13;;;8.10;;
75620;SDS011;64574;48.506;-2.750;2022-12-10T00:31:52;16.80;;;8.02;;
75620;SDS011;64574;48.506;-2.750;2022-12-10T00:34:17;15.38;;;7.22;;
75620;SDS011;64574;48.506;-2.750;2022-12-10T00:36:45;21.88;;;9.27;;
75620;SDS011;64574;48.506;-2.750;2022-12-10T00:39:14;20.20;;;9.25;;
75620;SDS011;64574;48.506;-2.750;2022-12-10T00:41:41;22.80;;;9.32;;
75620;SDS011;64574;48.506;-2.750;2022-12-10T00:44:07;18.50;;;8.02;;
75620;SDS011;64574;48.506;-2.750;2022-12-10T00:46:33;20.77;;;8.85;;
75620;SDS011;64574;48.506;-2.750;2022-12-10T00:48:59;26.23;;;10.13;;
75620;SDS011;64574;48.506;-2.750;2022-12-10T00:51:25;25.00;;;9.48;;
75620;SDS011;64574;48.506;-2.750;2022-12-10T00:53:52;22.17;;;8.32;;
75620;SDS011;64574;48.506;-2.750;2022-12-10T00:58:47;14.63;;;7.55;;
75620;SDS011;64574;48.506;-2.750;2022-12-10T01:03:44;16.10;;;7.18;;
75620;SDS011;64574;48.506;-2.750;2022-12-10T01:08:42;12.32;;;6.18;;
75620;SDS011;64574;48.506;-2.750;2022-12-10T01:11:09;15.32;;;7.65;;
75620;SDS011;64574;48.506;-2.750;2022-12-10T01:13:36;12.23;;;6.93;;
75620;SDS011;64574;48.506;-2.750;2022-12-10T01:16:03;17.73;;;7.65;;
75620;SDS011;64574;48.506;-2.750;2022-12-10T01:18:30;14.40;;;7.72;;
75620;SDS011;64574;48.506;-2.750;2022-12-10T01:21:00;12.32;;;7.13;;
75620;SDS011;64574;48.506;-2.750;2022-12-10T01:23:31;12.95;;;6.38;;
75620;SDS011;64574;48.506;-2.750;2022-12-10T01:26:05;12.48;;;6.38;;
75620;SDS011;64574;48.506;-2.750;2022-12-10T01:28:37;14.32;;;6.78;;
75620;SDS011;64574;48.506;-2.750;2022-12-10T01:31:09;11.27;;;6.95;;
75620;SDS011;64574;48.506;-2.750;2022-12-10T01:33:39;10.45;;;6.35;;
75620;SDS011;64574;48.506;-2.750;2022-12-10T01:36:12;12.52;;;7.10;;
75620;SDS011;64574;48.506;-2.750;2022-12-10T01:38:46;11.85;;;6.75;;
75620;SDS011;64574;48.506;-2.750;2022-12-10T01:41:14;12.02;;;6.63;;
75620;SDS011;64574;48.506;-2.750;2022-12-10T01:46:40;12.35;;;6.78;;
75620;SDS011;64574;48.506;-2.750;2022-12-10T01:49:09;15.23;;;7.13;;
75620;SDS011;64574;48.506;-2.750;2022-12-10T01:51:43;11.60;;;6.57;;
75620;SDS011;64574;48.506;-2.750;2022-12-10T01:54:11;13.20;;;6.57;;
75620;SDS011;64574;48.506;-2.750;2022-12-10T01:56:41;11.15;;;6.30;;
75620;SDS011;64574;48.506;-2.750;2022-12-10T01:59:10;11.30;;;6.25;;
75620;SDS011;64574;48.506;-2.750;2022-12-10T02:04:35;12.07;;;6.10;;
75620;SDS011;64574;48.506;-2.750;2022-12-10T02:07:27;10.20;;;5.45;;
75620;SDS011;64574;48.506;-2.750;2022-12-10T02:11:39;11.98;;;6.03;;
75620;SDS011;64574;48.506;-2.750;2022-12-10T02:13:42;11.70;;;6.13;;
75620;SDS011;64574;48.506;-2.750;2022-12-10T02:17:00;12.05;;;6.53;;
75620;SDS011;64574;48.506;-2.750;2022-12-10T02:19:13;15.30;;;7.43;;
75620;SDS011;64574;48.506;-2.750;2022-12-10T02:21:41;18.15;;;8.00;;
75620;SDS011;64574;48.506;-2.750;2022-12-10T02:24:12;20.88;;;8.00;;
75620;SDS011;64574;48.506;-2.750;2022-12-10T02:26:44;15.70;;;7.05;;
75620;SDS011;64574;48.506;-2.750;2022-12-10T02:29:24;17.30;;;7.97;;
75620;SDS011;64574;48.506;-2.750;2022-12-10T02:32:12;15.05;;;7.40;;
75620;SDS011;64574;48.506;-2.750;2022-12-10T02:34:42;16.88;;;7.57;;
75620;SDS011;64574;48.506;-2.750;2022-12-10T02:37:16;17.85;;;7.68;;
75620;SDS011;64574;48.506;-2.750;2022-12-10T02:39:47;17.67;;;7.50;;
75620;SDS011;64574;48.506;-2.750;2022-12-10T02:42:16;16.08;;;7.15;;
75620;SDS011;64574;48.506;-2.750;2022-12-10T02:44:44;18.45;;;8.27;;
75620;SDS011;64574;48.506;-2.750;2022-12-10T02:47:12;17.88;;;7.63;;
75620;SDS011;64574;48.506;-2.750;2022-12-10T02:49:39;16.90;;;7.20;;
75620;SDS011;64574;48.506;-2.750;2022-12-10T02:52:09;14.10;;;6.82;;
75620;SDS011;64574;48.506;-2.750;2022-12-10T02:54:42;16.30;;;7.13;;
75620;SDS011;64574;48.506;-2.750;2022-12-10T03:00:07;11.15;;;6.30;;
75620;SDS011;64574;48.506;-2.750;2022-12-10T03:07:59;12.32;;;5.88;;
75620;SDS011;64574;48.506;-2.750;2022-12-10T03:10:41;11.45;;;5.88;;
75620;SDS011;64574;48.506;-2.750;2022-12-10T03:13:16;11.02;;;6.10;;
75620;SDS011;64574;48.506;-2.750;2022-12-10T03:15:46;8.80;;;5.22;;
75620;SDS011;64574;48.506;-2.750;2022-12-10T03:18:14;10.80;;;5.10;;
75620;SDS011;64574;48.506;-2.750;2022-12-10T03:20:45;10.20;;;5.53;;
75620;SDS011;64574;48.506;-2.750;2022-12-10T03:23:14;12.63;;;5.80;;
75620;SDS011;64574;48.506;-2.750;2022-12-10T03:25:43;10.27;;;5.25;;
75620;SDS011;64574;48.506;-2.750;2022-12-10T03:28:12;10.07;;;5.55;;
75620;SDS011;64574;48.506;-2.750;2022-12-10T03:30:38;11.88;;;5.60;;
75620;SDS011;64574;48.506;-2.750;2022-12-10T03:33:06;11.15;;;5.70;;
75620;SDS011;64574;48.506;-2.750;2022-12-10T03:35:32;8.93;;;5.43;;
75620;SDS011;64574;48.506;-2.750;2022-12-10T03:37:58;11.98;;;5.82;;
75620;SDS011;64574;48.506;-2.750;2022-12-10T03:40:24;10.40;;;5.25;;
75620;SDS011;64574;48.506;-2.750;2022-12-10T03:42:50;12.63;;;6.22;;
75620;SDS011;64574;48.506;-2.750;2022-12-10T03:45:15;12.43;;;5.97;;
75620;SDS011;64574;48.506;-2.750;2022-12-10T03:47:41;9.88;;;4.75;;
75620;SDS011;64574;48.506;-2.750;2022-12-10T03:50:07;10.68;;;5.35;;
75620;SDS011;64574;48.506;-2.750;2022-12-10T03:52:34;9.38;;;4.75;;
75620;SDS011;64574;48.506;-2.750;2022-12-10T03:55:00;8.23;;;4.57;;
75620;SDS011;64574;48.506;-2.750;2022-12-10T03:57:26;8.55;;;4.40;;
75620;SDS011;64574;48.506;-2.750;2022-12-10T03:59:51;9.40;;;4.70;;
75620;SDS011;64574;48.506;-2.750;2022-12-10T04:02:17;11.52;;;6.88;;
75620;SDS011;64574;48.506;-2.750;2022-12-10T04:04:43;11.52;;;6.78;;
75620;SDS011;64574;48.506;-2.750;2022-12-10T04:07:09;8.80;;;4.53;;
75620;SDS011;64574;48.506;-2.750;2022-12-10T04:09:34;8.25;;;4.40;;
75620;SDS011;64574;48.506;-2.750;2022-12-10T04:12:00;6.93;;;4.28;;
75620;SDS011;64574;48.506;-2.750;2022-12-10T04:14:26;5.70;;;3.67;;
75620;SDS011;64574;48.506;-2.750;2022-12-10T04:17:11;6.00;;;3.90;;
75620;SDS011;64574;48.506;-2.750;2022-12-10T04:19:36;7.55;;;4.10;;
75620;SDS011;64574;48.506;-2.750;2022-12-10T04:22:02;8.00;;;3.92;;
75620;SDS011;64574;48.506;-2.750;2022-12-10T04:24:47;7.47;;;3.92;;
75620;SDS011;64574;48.506;-2.750;2022-12-10T04:27:37;6.93;;;4.15;;
75620;SDS011;64574;48.506;-2.750;2022-12-10T04:30:05;8.75;;;4.20;;
75620;SDS011;64574;48.506;-2.750;2022-12-10T04:32:33;7.15;;;3.53;;
75620;SDS011;64574;48.506;-2.750;2022-12-10T04:34:59;8.90;;;4.88;;
75620;SDS011;64574;48.506;-2.750;2022-12-10T04:37:24;9.43;;;4.35;;
75620;SDS011;64574;48.506;-2.750;2022-12-10T04:39:51;9.25;;;4.68;;
75620;SDS011;64574;48.506;-2.750;2022-12-10T04:42:17;8.73;;;4.15;;
75620;SDS011;64574;48.506;-2.750;2022-12-10T04:44:44;7.75;;;3.83;;
75620;SDS011;64574;48.506;-2.750;2022-12-10T04:47:09;9.05;;;4.30;;
75620;SDS011;64574;48.506;-2.750;2022-12-10T04:49:36;8.45;;;3.95;;
75620;SDS011;64574;48.506;-2.750;2022-12-10T04:52:02;7.20;;;4.05;;
75620;SDS011;64574;48.506;-2.750;2022-12-10T04:54:29;8.07;;;4.15;;
75620;SDS011;64574;48.506;-2.750;2022-12-10T04:56:55;6.53;;;3.72;;
75620;SDS011;64574;48.506;-2.750;2022-12-10T04:59:21;7.97;;;4.35;;
75620;SDS011;64574;48.506;-2.750;2022-12-10T05:01:46;7.93;;;4.20;;
75620;SDS011;64574;48.506;-2.750;2022-12-10T05:04:13;7.32;;;4.05;;
75620;SDS011;64574;48.506;-2.750;2022-12-10T05:06:41;6.88;;;3.75;;
75620;SDS011;64574;48.506;-2.750;2022-12-10T05:09:07;8.15;;;4.15;;
75620;SDS011;64574;48.506;-2.750;2022-12-10T05:11:33;7.43;;;4.32;;
75620;SDS011;64574;48.506;-2.750;2022-12-10T05:13:59;7.70;;;4.28;;
75620;SDS011;64574;48.506;-2.750;2022-12-10T05:16:26;7.30;;;4.15;;
75620;SDS011;64574;48.506;-2.750;2022-12-10T05:18:54;8.05;;;4.50;;
75620;SDS011;64574;48.506;-2.750;2022-12-10T05:21:20;9.15;;;4.20;;
75620;SDS011;64574;48.506;-2.750;2022-12-10T05:23:48;8.38;;;4.93;;
75620;SDS011;64574;48.506;-2.750;2022-12-10T05:26:22;8.20;;;5.07;;
75620;SDS011;64574;48.506;-2.750;2022-12-10T05:28:50;8.88;;;5.32;;
75620;SDS011;64574;48.506;-2.750;2022-12-10T05:31:19;7.75;;;4.90;;
75620;SDS011;64574;48.506;-2.750;2022-12-10T05:33:46;9.30;;;5.28;;
75620;SDS011;64574;48.506;-2.750;2022-12-10T05:36:12;8.10;;;4.55;;
75620;SDS011;64574;48.506;-2.750;2022-12-10T05:41:09;7.75;;;3.78;;
75620;SDS011;64574;48.506;-2.750;2022-12-10T05:44:01;6.13;;;3.88;;
75620;SDS011;64574;48.506;-2.750;2022-12-10T05:46:29;6.00;;;3.60;;
75620;SDS011;64574;48.506;-2.750;2022-12-10T05:48:56;5.82;;;3.20;;
75620;SDS011;64574;48.506;-2.750;2022-12-10T05:51:27;6.50;;;4.07;;
75620;SDS011;64574;48.506;-2.750;2022-12-10T05:53:54;7.20;;;3.80;;
75620;SDS011;64574;48.506;-2.750;2022-12-10T05:56:22;6.47;;;3.50;;
75620;SDS011;64574;48.506;-2.750;2022-12-10T05:58:49;6.78;;;3.28;;
75620;SDS011;64574;48.506;-2.750;2022-12-10T06:01:20;5.72;;;3.30;;
75620;SDS011;64574;48.506;-2.750;2022-12-10T06:03:48;6.90;;;3.67;;
75620;SDS011;64574;48.506;-2.750;2022-12-10T06:06:25;5.55;;;3.33;;
75620;SDS011;64574;48.506;-2.750;2022-12-10T06:08:55;7.03;;;3.80;;
75620;SDS011;64574;48.506;-2.750;2022-12-10T06:11:22;7.05;;;3.63;;
75620;SDS011;64574;48.506;-2.750;2022-12-10T06:13:48;6.65;;;3.63;;
75620;SDS011;64574;48.506;-2.750;2022-12-10T06:16:14;8.00;;;4.38;;
75620;SDS011;64574;48.506;-2.750;2022-12-10T06:18:40;6.88;;;4.18;;
75620;SDS011;64574;48.506;-2.750;2022-12-10T06:21:11;6.07;;;3.72;;
75620;SDS011;64574;48.506;-2.750;2022-12-10T06:26:06;5.65;;;3.25;;
75620;SDS011;64574;48.506;-2.750;2022-12-10T06:28:32;5.57;;;3.30;;
75620;SDS011;64574;48.506;-2.750;2022-12-10T06:30:58;9.05;;;3.53;;
75620;SDS011;64574;48.506;-2.750;2022-12-10T06:33:25;5.65;;;3.42;;
75620;SDS011;64574;48.506;-2.750;2022-12-10T06:35:50;7.90;;;4.03;;
75620;SDS011;64574;48.506;-2.750;2022-12-10T06:38:16;6.90;;;3.45;;
75620;SDS011;64574;48.506;-2.750;2022-12-10T06:40:42;5.80;;;3.63;;
75620;SDS011;64574;48.506;-2.750;2022-12-10T06:43:08;6.10;;;3.92;;
75620;SDS011;64574;48.506;-2.750;2022-12-10T06:45:33;6.68;;;3.28;;
75620;SDS011;64574;48.506;-2.750;2022-12-10T06:48:03;8.48;;;4.00;;
75620;SDS011;64574;48.506;-2.750;2022-12-10T06:50:29;6.00;;;3.60;;
75620;SDS011;64574;48.506;-2.750;2022-12-10T06:52:54;6.53;;;3.10;;
75620;SDS011;64574;48.506;-2.750;2022-12-10T06:55:21;5.45;;;3.40;;
75620;SDS011;64574;48.506;-2.750;2022-12-10T06:57:46;5.60;;;3.13;;
75620;SDS011;64574;48.506;-2.750;2022-12-10T07:00:15;6.68;;;3.47;;
75620;SDS011;64574;48.506;-2.750;2022-12-10T07:02:40;8.45;;;3.85;;
75620;SDS011;64574;48.506;-2.750;2022-12-10T07:05:06;6.50;;;3.58;;
75620;SDS011;64574;48.506;-2.750;2022-12-10T07:07:32;5.85;;;3.67;;
75620;SDS011;64574;48.506;-2.750;2022-12-10T07:09:58;5.97;;;3.25;;
75620;SDS011;64574;48.506;-2.750;2022-12-10T07:12:23;7.57;;;3.58;;
75620;SDS011;64574;48.506;-2.750;2022-12-10T07:14:49;7.07;;;3.72;;
75620;SDS011;64574;48.506;-2.750;2022-12-10T07:17:14;7.45;;;3.47;;
75620;SDS011;64574;48.506;-2.750;2022-12-10T07:19:40;6.35;;;3.55;;
75620;SDS011;64574;48.506;-2.750;2022-12-10T07:22:05;7.00;;;3.70;;
75620;SDS011;64574;48.506;-2.750;2022-12-10T07:24:31;8.35;;;3.53;;
75620;SDS011;64574;48.506;-2.750;2022-12-10T07:26:57;7.28;;;3.42;;
75620;SDS011;64574;48.506;-2.750;2022-12-10T07:29:22;7.63;;;4.15;;
75620;SDS011;64574;48.506;-2.750;2022-12-10T07:31:48;6.82;;;4.07;;
75620;SDS011;64574;48.506;-2.750;2022-12-10T07:34:14;9.13;;;4.75;;
75620;SDS011;64574;48.506;-2.750;2022-12-10T07:36:40;8.23;;;4.45;;
75620;SDS011;64574;48.506;-2.750;2022-12-10T07:39:07;6.20;;;3.55;;
75620;SDS011;64574;48.506;-2.750;2022-12-10T07:41:34;6.40;;;3.75;;
75620;SDS011;64574;48.506;-2.750;2022-12-10T07:44:00;6.80;;;3.55;;
75620;SDS011;64574;48.506;-2.750;2022-12-10T07:46:28;7.22;;;3.55;;
75620;SDS011;64574;48.506;-2.750;2022-12-10T07:48:56;6.82;;;3.50;;
75620;SDS011;64574;48.506;-2.750;2022-12-10T07:51:24;6.78;;;3.63;;
75620;SDS011;64574;48.506;-2.750;2022-12-10T07:53:53;6.15;;;3.28;;
75620;SDS011;64574;48.506;-2.750;2022-12-10T07:56:19;6.25;;;3.40;;
75620;SDS011;64574;48.506;-2.750;2022-12-10T07:58:46;9.45;;;3.75;;
75620;SDS011;64574;48.506;-2.750;2022-12-10T08:01:13;12.93;;;4.05;;
75620;SDS011;64574;48.506;-2.750;2022-12-10T08:03:40;10.30;;;4.60;;
75620;SDS011;64574;48.506;-2.750;2022-12-10T08:06:07;9.55;;;4.22;;
75620;SDS011;64574;48.506;-2.750;2022-12-10T08:08:34;10.27;;;4.53;;
75620;SDS011;64574;48.506;-2.750;2022-12-10T08:11:01;10.55;;;4.25;;
75620;SDS011;64574;48.506;-2.750;2022-12-10T08:13:28;8.98;;;4.38;;
75620;SDS011;64574;48.506;-2.750;2022-12-10T08:15:59;8.98;;;4.00;;
75620;SDS011;64574;48.506;-2.750;2022-12-10T08:18:29;8.63;;;3.63;;
75620;SDS011;64574;48.506;-2.750;2022-12-10T08:20:56;7.85;;;4.22;;
75620;SDS011;64574;48.506;-2.750;2022-12-10T08:23:21;7.35;;;4.10;;
75620;SDS011;64574;48.506;-2.750;2022-12-10T08:25:47;8.65;;;4.35;;
75620;SDS011;64574;48.506;-2.750;2022-12-10T08:28:12;8.93;;;4.50;;
75620;SDS011;64574;48.506;-2.750;2022-12-10T08:30:38;7.97;;;3.90;;
75620;SDS011;64574;48.506;-2.750;2022-12-10T08:33:04;8.80;;;4.18;;
75620;SDS011;64574;48.506;-2.750;2022-12-10T08:35:29;9.98;;;4.70;;
75620;SDS011;64574;48.506;-2.750;2022-12-10T08:37:55;11.23;;;4.78;;
75620;SDS011;64574;48.506;-2.750;2022-12-10T08:40:21;11.48;;;5.20;;
75620;SDS011;64574;48.506;-2.750;2022-12-10T08:42:46;10.88;;;5.20;;
75620;SDS011;64574;48.506;-2.750;2022-12-10T08:45:12;13.60;;;5.57;;
75620;SDS011;64574;48.506;-2.750;2022-12-10T08:47:37;9.68;;;5.25;;
75620;SDS011;64574;48.506;-2.750;2022-12-10T08:50:03;9.38;;;5.47;;
75620;SDS011;64574;48.506;-2.750;2022-12-10T08:52:29;8.07;;;4.50;;
75620;SDS011;64574;48.506;-2.750;2022-12-10T08:54:55;7.65;;;4.68;;
75620;SDS011;64574;48.506;-2.750;2022-12-10T08:57:20;7.18;;;4.25;;
75620;SDS011;64574;48.506;-2.750;2022-12-10T08:59:46;9.55;;;5.13;;
75620;SDS011;64574;48.506;-2.750;2022-12-10T09:02:12;11.00;;;4.75;;
75620;SDS011;64574;48.506;-2.750;2022-12-10T09:04:37;7.45;;;4.68;;
75620;SDS011;64574;48.506;-2.750;2022-12-10T09:07:04;8.98;;;4.60;;
75620;SDS011;64574;48.506;-2.750;2022-12-10T09:09:31;8.73;;;4.70;;
75620;SDS011;64574;48.506;-2.750;2022-12-10T09:11:57;10.20;;;5.00;;
75620;SDS011;64574;48.506;-2.750;2022-12-10T09:14:22;11.23;;;5.50;;
75620;SDS011;64574;48.506;-2.750;2022-12-10T09:16:49;9.70;;;5.45;;
75620;SDS011;64574;48.506;-2.750;2022-12-10T09:19:15;11.90;;;5.53;;
75620;SDS011;64574;48.506;-2.750;2022-12-10T09:21:41;11.07;;;4.72;;
75620;SDS011;64574;48.506;-2.750;2022-12-10T09:24:06;12.68;;;5.93;;
75620;SDS011;64574;48.506;-2.750;2022-12-10T09:26:32;11.18;;;5.40;;
75620;SDS011;64574;48.506;-2.750;2022-12-10T09:28:58;10.65;;;5.30;;
75620;SDS011;64574;48.506;-2.750;2022-12-10T09:31:24;9.52;;;5.30;;
75620;SDS011;64574;48.506;-2.750;2022-12-10T09:33:51;9.43;;;4.97;;
75620;SDS011;64574;48.506;-2.750;2022-12-10T09:36:17;14.95;;;6.25;;
75620;SDS011;64574;48.506;-2.750;2022-12-10T09:38:44;12.55;;;6.35;;
75620;SDS011;64574;48.506;-2.750;2022-12-10T09:41:33;12.95;;;5.65;;
75620;SDS011;64574;48.506;-2.750;2022-12-10T09:46:53;9.35;;;4.65;;
75620;SDS011;64574;48.506;-2.750;2022-12-10T09:51:58;10.20;;;4.88;;
75620;SDS011;64574;48.506;-2.750;2022-12-10T09:54:31;10.00;;;4.97;;
75620;SDS011;64574;48.506;-2.750;2022-12-10T09:56:59;12.32;;;5.18;;
75620;SDS011;64574;48.506;-2.750;2022-12-10T09:59:31;11.23;;;5.13;;
75620;SDS011;64574;48.506;-2.750;2022-12-10T10:10:52;12.52;;;6.50;;
75620;SDS011;64574;48.506;-2.750;2022-12-10T10:13:31;10.70;;;5.07;;
75620;SDS011;64574;48.506;-2.750;2022-12-10T10:16:18;9.38;;;5.63;;
75620;SDS011;64574;48.506;-2.750;2022-12-10T10:21:28;5.28;;;3.45;;
75620;SDS011;64574;48.506;-2.750;2022-12-10T10:24:03;5.65;;;3.00;;
75620;SDS011;64574;48.506;-2.750;2022-12-10T10:26:31;7.15;;;3.78;;
75620;SDS011;64574;48.506;-2.750;2022-12-10T10:29:01;7.55;;;3.83;;
75620;SDS011;64574;48.506;-2.750;2022-12-10T10:31:31;7.68;;;4.10;;
75620;SDS011;64574;48.506;-2.750;2022-12-10T10:33:59;8.15;;;4.43;;
75620;SDS011;64574;48.506;-2.750;2022-12-10T10:36:30;9.85;;;5.22;;
75620;SDS011;64574;48.506;-2.750;2022-12-10T10:39:07;6.38;;;4.00;;
75620;SDS011;64574;48.506;-2.750;2022-12-10T10:41:37;7.95;;;4.38;;
75620;SDS011;64574;48.506;-2.750;2022-12-10T10:44:05;5.82;;;3.05;;
75620;SDS011;64574;48.506;-2.750;2022-12-10T10:46:48;5.13;;;3.05;;
75620;SDS011;64574;48.506;-2.750;2022-12-10T10:49:23;7.70;;;3.17;;
75620;SDS011;64574;48.506;-2.750;2022-12-10T10:51:58;5.82;;;2.75;;
75620;SDS011;64574;48.506;-2.750;2022-12-10T10:54:39;4.80;;;2.75;;
75620;SDS011;64574;48.506;-2.750;2022-12-10T10:57:11;5.07;;;2.63;;
75620;SDS011;64574;48.506;-2.750;2022-12-10T10:59:43;5.13;;;2.80;;
75620;SDS011;64574;48.506;-2.750;2022-12-10T11:04:44;6.43;;;2.30;;
75620;SDS011;64574;48.506;-2.750;2022-12-10T11:07:18;4.32;;;2.72;;
75620;SDS011;64574;48.506;-2.750;2022-12-10T11:09:51;5.07;;;2.83;;
75620;SDS011;64574;48.506;-2.750;2022-12-10T11:12:34;3.20;;;1.73;;
75620;SDS011;64574;48.506;-2.750;2022-12-10T11:15:05;4.80;;;1.88;;
75620;SDS011;64574;48.506;-2.750;2022-12-10T11:17:48;3.72;;;1.88;;
75620;SDS011;64574;48.506;-2.750;2022-12-10T11:20:19;4.47;;;1.90;;
75620;SDS011;64574;48.506;-2.750;2022-12-10T11:22:50;4.22;;;1.77;;
75620;SDS011;64574;48.506;-2.750;2022-12-10T11:25:19;3.90;;;1.90;;
75620;SDS011;64574;48.506;-2.750;2022-12-10T11:27:59;3.83;;;2.47;;
75620;SDS011;64574;48.506;-2.750;2022-12-10T11:30:31;4.07;;;1.60;;
75620;SDS011;64574;48.506;-2.750;2022-12-10T11:38:41;4.47;;;2.00;;
75620;SDS011;64574;48.506;-2.750;2022-12-10T12:13:35;4.57;;;1.95;;
75620;SDS011;64574;48.506;-2.750;2022-12-10T12:16:20;3.50;;;2.03;;
75620;SDS011;64574;48.506;-2.750;2022-12-10T12:19:03;4.25;;;1.40;;
75620;SDS011;64574;48.506;-2.750;2022-12-10T12:21:34;3.00;;;2.05;;
75620;SDS011;64574;48.506;-2.750;2022-12-10T12:24:06;3.28;;;1.45;;
75620;SDS011;64574;48.506;-2.750;2022-12-10T12:26:41;6.35;;;2.05;;
75620;SDS011;64574;48.506;-2.750;2022-12-10T12:31:56;3.78;;;2.40;;
75620;SDS011;64574;48.506;-2.750;2022-12-10T12:34:28;3.10;;;1.60;;
75620;SDS011;64574;48.506;-2.750;2022-12-10T12:37:03;4.38;;;1.90;;
75620;SDS011;64574;48.506;-2.750;2022-12-10T12:40:32;4.00;;;1.42;;
75620;SDS011;64574;48.506;-2.750;2022-12-10T12:42:32;4.05;;;2.20;;
75620;SDS011;64574;48.506;-2.750;2022-12-10T12:47:39;3.00;;;1.75;;
75620;SDS011;64574;48.506;-2.750;2022-12-10T12:52:56;3.78;;;1.98;;
75620;SDS011;64574;48.506;-2.750;2022-12-10T12:58:13;6.30;;;3.00;;
75620;SDS011;64574;48.506;-2.750;2022-12-10T13:00:57;5.55;;;3.05;;
75620;SDS011;64574;48.506;-2.750;2022-12-10T13:03:33;4.57;;;2.63;;
75620;SDS011;64574;48.506;-2.750;2022-12-10T13:11:37;7.55;;;2.90;;
75620;SDS011;64574;48.506;-2.750;2022-12-10T13:16:34;4.35;;;2.28;;
75620;SDS011;64574;48.506;-2.750;2022-12-10T13:24:18;2.90;;;1.35;;
75620;SDS011;64574;48.506;-2.750;2022-12-10T13:42:37;4.55;;;1.60;;
75620;SDS011;64574;48.506;-2.750;2022-12-10T13:45:24;3.00;;;1.40;;
75620;SDS011;64574;48.506;-2.750;2022-12-10T13:47:53;2.55;;;1.10;;
75620;SDS011;64574;48.506;-2.750;2022-12-10T13:50:40;3.97;;;1.35;;
75620;SDS011;64574;48.506;-2.750;2022-12-10T14:07:18;2.55;;;1.10;;
75620;SDS011;64574;48.506;-2.750;2022-12-10T14:09:46;3.38;;;1.60;;
75620;SDS011;64574;48.506;-2.750;2022-12-10T14:12:17;5.60;;;1.80;;
75620;SDS011;64574;48.506;-2.750;2022-12-10T14:14:51;4.07;;;1.70;;
75620;SDS011;64574;48.506;-2.750;2022-12-10T14:17:23;5.45;;;1.77;;
75620;SDS011;64574;48.506;-2.750;2022-12-10T14:19:55;4.32;;;1.77;;
75620;SDS011;64574;48.506;-2.750;2022-12-10T14:22:44;4.57;;;1.80;;
75620;SDS011;64574;48.506;-2.750;2022-12-10T14:25:22;4.97;;;1.90;;
75620;SDS011;64574;48.506;-2.750;2022-12-10T14:27:49;3.20;;;1.67;;
75620;SDS011;64574;48.506;-2.750;2022-12-10T14:30:23;3.67;;;1.73;;
75620;SDS011;64574;48.506;-2.750;2022-12-10T14:32:53;5.18;;;2.20;;
75620;SDS011;64574;48.506;-2.750;2022-12-10T14:35:22;3.33;;;1.73;;
75620;SDS011;64574;48.506;-2.750;2022-12-10T14:37:50;3.58;;;1.90;;
75620;SDS011;64574;48.506;-2.750;2022-12-10T14:43:04;3.50;;;1.92;;
75620;SDS011;64574;48.506;-2.750;2022-12-10T14:45:38;4.55;;;1.92;;
75620;SDS011;64574;48.506;-2.750;2022-12-10T14:48:22;3.63;;;1.90;;
75620;SDS011;64574;48.506;-2.750;2022-12-10T14:50:48;5.00;;;2.25;;
75620;SDS011;64574;48.506;-2.750;2022-12-10T14:53:16;4.95;;;2.17;;
75620;SDS011;64574;48.506;-2.750;2022-12-10T14:55:48;6.20;;;1.88;;
75620;SDS011;64574;48.506;-2.750;2022-12-10T14:58:18;4.60;;;1.90;;
75620;SDS011;64574;48.506;-2.750;2022-12-10T15:00:51;2.88;;;1.50;;
75620;SDS011;64574;48.506;-2.750;2022-12-10T15:03:25;3.25;;;1.63;;
75620;SDS011;64574;48.506;-2.750;2022-12-10T15:05:58;2.85;;;1.45;;
75620;SDS011;64574;48.506;-2.750;2022-12-10T15:08:31;3.40;;;1.33;;
75620;SDS011;64574;48.506;-2.750;2022-12-10T15:10:57;3.95;;;1.65;;
75620;SDS011;64574;48.506;-2.750;2022-12-10T15:13:39;5.05;;;1.88;;
75620;SDS011;64574;48.506;-2.750;2022-12-10T15:16:18;3.17;;;1.55;;
75620;SDS011;64574;48.506;-2.750;2022-12-10T15:18:55;4.25;;;1.80;;
75620;SDS011;64574;48.506;-2.750;2022-12-10T15:21:31;5.75;;;2.17;;
75620;SDS011;64574;48.506;-2.750;2022-12-10T15:26:47;2.58;;;1.45;;
75620;SDS011;64574;48.506;-2.750;2022-12-10T15:29:35;5.55;;;2.17;;
75620;SDS011;64574;48.506;-2.750;2022-12-10T15:32:03;3.90;;;1.77;;
75620;SDS011;64574;48.506;-2.750;2022-12-10T15:34:34;4.00;;;2.00;;
75620;SDS011;64574;48.506;-2.750;2022-12-10T15:37:05;5.10;;;2.35;;
75620;SDS011;64574;48.506;-2.750;2022-12-10T15:39:43;4.75;;;2.30;;
75620;SDS011;64574;48.506;-2.750;2022-12-10T15:42:26;5.10;;;1.98;;
75620;SDS011;64574;48.506;-2.750;2022-12-10T15:45:15;4.97;;;2.10;;
75620;SDS011;64574;48.506;-2.750;2022-12-10T15:47:41;5.35;;;2.00;;
75620;SDS011;64574;48.506;-2.750;2022-12-10T15:50:08;4.25;;;2.60;;
75620;SDS011;64574;48.506;-2.750;2022-12-10T15:52:34;6.68;;;2.53;;
75620;SDS011;64574;48.506;-2.750;2022-12-10T15:55:00;6.90;;;2.58;;
75620;SDS011;64574;48.506;-2.750;2022-12-10T15:59:58;5.10;;;2.90;;
75620;SDS011;64574;48.506;-2.750;2022-12-10T16:08:16;6.43;;;3.30;;
75620;SDS011;64574;48.506;-2.750;2022-12-10T16:10:46;5.88;;;3.05;;
75620;SDS011;64574;48.506;-2.750;2022-12-10T16:18:16;7.53;;;3.80;;
75620;SDS011;64574;48.506;-2.750;2022-12-10T16:20:41;6.10;;;3.83;;
75620;SDS011;64574;48.506;-2.750;2022-12-10T16:23:07;7.00;;;3.38;;
75620;SDS011;64574;48.506;-2.750;2022-12-10T16:25:33;9.65;;;4.30;;
75620;SDS011;64574;48.506;-2.750;2022-12-10T16:28:01;9.18;;;4.72;;
75620;SDS011;64574;48.506;-2.750;2022-12-10T16:30:29;9.63;;;4.93;;
75620;SDS011;64574;48.506;-2.750;2022-12-10T16:32:59;10.10;;;4.53;;
75620;SDS011;64574;48.506;-2.750;2022-12-10T16:35:25;8.60;;;4.85;;
75620;SDS011;64574;48.506;-2.750;2022-12-10T16:37:50;11.38;;;5.40;;
75620;SDS011;64574;48.506;-2.750;2022-12-10T16:40:20;12.10;;;5.18;;
75620;SDS011;64574;48.506;-2.750;2022-12-10T16:42:50;9.43;;;5.10;;
75620;SDS011;64574;48.506;-2.750;2022-12-10T16:47:42;14.65;;;5.63;;
75620;SDS011;64574;48.506;-2.750;2022-12-10T16:50:08;10.20;;;5.47;;
75620;SDS011;64574;48.506;-2.750;2022-12-10T16:52:35;9.52;;;5.82;;
75620;SDS011;64574;48.506;-2.750;2022-12-10T16:55:01;11.10;;;6.18;;
75620;SDS011;64574;48.506;-2.750;2022-12-10T16:57:27;12.00;;;5.78;;
75620;SDS011;64574;48.506;-2.750;2022-12-10T16:59:53;12.52;;;6.28;;
75620;SDS011;64574;48.506;-2.750;2022-12-10T17:02:19;14.45;;;7.30;;
75620;SDS011;64574;48.506;-2.750;2022-12-10T17:04:45;12.85;;;7.28;;
75620;SDS011;64574;48.506;-2.750;2022-12-10T17:07:11;12.95;;;6.53;;
75620;SDS011;64574;48.506;-2.750;2022-12-10T17:09:37;16.17;;;7.82;;
75620;SDS011;64574;48.506;-2.750;2022-12-10T17:12:04;13.35;;;7.65;;
75620;SDS011;64574;48.506;-2.750;2022-12-10T17:14:35;14.45;;;7.97;;
75620;SDS011;64574;48.506;-2.750;2022-12-10T17:17:03;16.90;;;9.13;;
75620;SDS011;64574;48.506;-2.750;2022-12-10T17:19:31;16.67;;;9.20;;
75620;SDS011;64574;48.506;-2.750;2022-12-10T17:21:58;20.27;;;8.88;;
75620;SDS011;64574;48.506;-2.750;2022-12-10T17:24:24;19.50;;;9.02;;